Time;durP1;ratioP1;P1;durP2;ratioP2;P2;SDS_P1;SDS_P2;PMS_P1;PMS_P2;Temp;Humidity;BMP_temperature;BMP_pressure;BME280_temperature;BME280_humidity;BME280_pressure;Samples;Min_cycle;Max_cycle;Signal;HPM_P1;HPM_P2
2023/06/25 00:01:56;;;;;;;7.35;3.47;;;20.60;99.90;;;;;;5048075;28;20053;-61
2023/06/25 00:04:23;;;;;;;6.75;3.63;;;20.60;99.90;;;;;;5054038;28;20037;-61
2023/06/25 00:06:51;;;;;;;5.55;3.33;;;20.60;99.90;;;;;;5059697;28;20045;-60
2023/06/25 00:09:18;;;;;;;5.90;3.20;;;20.50;99.90;;;;;;5059569;28;20055;-60
2023/06/25 00:11:46;;;;;;;5.55;3.47;;;20.50;99.90;;;;;;5053789;28;20044;-60
2023/06/25 00:14:14;;;;;;;6.20;3.65;;;20.40;99.90;;;;;;5050562;28;20047;-62
2023/06/25 00:16:42;;;;;;;6.05;3.88;;;20.30;99.90;;;;;;5046500;28;20045;-60
2023/06/25 00:19:09;;;;;;;5.18;3.88;;;20.30;99.90;;;;;;5051578;28;20501;-60
2023/06/25 00:21:37;;;;;;;5.80;3.72;;;20.20;99.90;;;;;;5049073;28;20056;-62
2023/06/25 00:24:05;;;;;;;6.22;4.25;;;20.20;99.90;;;;;;5054657;28;20048;-61
2023/06/25 00:26:32;;;;;;;6.38;4.15;;;20.20;99.90;;;;;;5071949;28;20508;-61
2023/06/25 00:29:00;;;;;;;9.93;4.00;;;20.10;99.90;;;;;;5056124;28;20052;-60
2023/06/25 00:31:28;;;;;;;6.32;3.80;;;20.10;99.90;;;;;;5067858;28;20045;-61
2023/06/25 00:33:56;;;;;;;5.22;3.63;;;20.10;99.90;;;;;;5059592;28;20049;-61
2023/06/25 00:36:24;;;;;;;8.07;3.97;;;20.00;99.90;;;;;;5060505;28;20392;-61
2023/06/25 00:38:52;;;;;;;7.13;4.55;;;20.00;99.90;;;;;;5058054;28;20056;-60
2023/06/25 00:41:20;;;;;;;8.15;4.35;;;20.00;99.90;;;;;;5057150;28;20045;-60
2023/06/25 00:43:47;;;;;;;5.47;4.00;;;20.00;99.90;;;;;;5055085;28;20048;-61
2023/06/25 00:46:15;;;;;;;6.97;4.20;;;20.00;99.90;;;;;;5074335;28;20048;-61
2023/06/25 00:48:48;;;;;;;5.95;4.05;;;20.00;99.90;;;;;;5060979;28;20052;-61
2023/06/25 00:51:17;;;;;;;7.35;4.30;;;20.00;99.90;;;;;;5050962;28;20037;-60
2023/06/25 00:53:45;;;;;;;7.57;4.05;;;20.00;99.90;;;;;;5047475;28;20037;-60
2023/06/25 00:56:13;;;;;;;9.00;4.20;;;20.00;99.90;;;;;;5061931;28;20048;-61
2023/06/25 00:58:41;;;;;;;6.20;4.15;;;20.00;99.90;;;;;;5058856;28;20048;-59
2023/06/25 01:01:26;;;;;;;6.75;4.53;;;20.00;99.90;;;;;;5055046;28;20033;-62
2023/06/25 01:04:00;;;;;;;7.07;4.15;;;20.00;99.90;;;;;;5048838;28;20400;-60
2023/06/25 01:06:30;;;;;;;6.53;3.90;;;20.00;99.90;;;;;;5059819;28;20041;-60
2023/06/25 01:08:59;;;;;;;6.55;4.70;;;19.90;99.90;;;;;;5063171;28;20037;-61
2023/06/25 01:11:28;;;;;;;7.63;4.38;;;19.90;99.90;;;;;;5048632;28;20412;-61
2023/06/25 01:13:56;;;;;;;8.52;4.85;;;19.80;99.90;;;;;;5064759;28;20044;-61
2023/06/25 01:16:24;;;;;;;7.63;4.65;;;19.80;99.90;;;;;;5053057;28;20049;-61
2023/06/25 01:18:52;;;;;;;7.70;4.63;;;19.70;99.90;;;;;;5056104;28;20053;-60
2023/06/25 01:21:26;;;;;;;13.18;5.20;;;19.70;99.90;;;;;;5052055;28;20045;-60
2023/06/25 01:23:55;;;;;;;10.00;4.63;;;19.70;99.90;;;;;;5059913;28;20081;-60
2023/06/25 01:26:22;;;;;;;8.30;4.22;;;19.70;99.90;;;;;;5068790;28;20048;-60
2023/06/25 01:28:55;;;;;;;7.05;4.60;;;19.60;99.90;;;;;;5057524;28;20053;-60
2023/06/25 01:31:24;;;;;;;6.75;4.13;;;19.60;99.90;;;;;;5048939;28;20033;-60
2023/06/25 01:33:52;;;;;;;7.82;4.47;;;19.50;99.90;;;;;;5064346;28;20053;-60
2023/06/25 01:36:19;;;;;;;9.00;4.97;;;19.50;99.90;;;;;;5066475;28;20424;-60
2023/06/25 01:38:47;;;;;;;8.43;5.43;;;19.40;99.90;;;;;;5072144;28;20048;-60
2023/06/25 01:41:15;;;;;;;8.90;4.85;;;19.40;99.90;;;;;;5053947;28;20406;-61
2023/06/25 01:43:42;;;;;;;9.18;5.05;;;19.30;99.90;;;;;;5064786;28;20037;-62
2023/06/25 01:46:10;;;;;;;7.28;5.18;;;19.30;99.90;;;;;;5059007;28;20041;-60
2023/06/25 01:48:37;;;;;;;8.48;4.85;;;19.30;99.90;;;;;;5067746;28;20130;-59
2023/06/25 01:51:05;;;;;;;10.52;5.45;;;19.20;99.90;;;;;;5059500;28;20198;-68
2023/06/25 01:53:33;;;;;;;7.65;5.10;;;19.20;99.90;;;;;;5064666;28;20483;-67
2023/06/25 01:56:01;;;;;;;8.30;4.47;;;19.20;99.90;;;;;;5072384;28;20492;-68
2023/06/25 01:58:28;;;;;;;10.63;4.68;;;19.10;99.90;;;;;;5065510;28;20048;-63
2023/06/25 02:00:56;;;;;;;9.77;4.88;;;19.10;99.90;;;;;;5069758;28;20060;-68
2023/06/25 02:03:24;;;;;;;7.18;4.63;;;19.00;99.90;;;;;;5060520;28;20045;-59
2023/06/25 02:05:52;;;;;;;7.68;4.35;;;19.00;99.90;;;;;;5052773;28;20052;-60
2023/06/25 02:08:19;;;;;;;6.43;4.35;;;18.90;99.90;;;;;;5062699;28;20048;-60
2023/06/25 02:10:47;;;;;;;7.13;4.32;;;18.90;99.90;;;;;;5059348;28;20046;-63
2023/06/25 02:13:16;;;;;;;8.18;4.75;;;18.90;99.90;;;;;;5058299;28;20060;-60
2023/06/25 02:15:44;;;;;;;8.45;4.82;;;18.90;99.90;;;;;;5052161;28;20056;-60
2023/06/25 02:18:15;;;;;;;6.88;4.18;;;18.90;99.90;;;;;;5059595;28;20067;-61
2023/06/25 02:20:42;;;;;;;8.00;4.35;;;18.90;99.90;;;;;;5055823;28;20036;-60
2023/06/25 02:23:10;;;;;;;21.05;4.32;;;18.90;99.90;;;;;;5069261;28;20515;-60
2023/06/25 02:25:38;;;;;;;7.18;3.63;;;18.80;99.90;;;;;;5053037;28;20048;-61
2023/06/25 02:28:06;;;;;;;10.80;3.67;;;18.80;99.90;;;;;;5063823;28;20052;-60
2023/06/25 02:30:33;;;;;;;6.00;3.75;;;18.80;99.90;;;;;;5059965;28;20049;-60
2023/06/25 02:33:01;;;;;;;9.25;3.70;;;18.80;99.90;;;;;;5054826;28;20044;-59
2023/06/25 02:35:29;;;;;;;8.55;3.45;;;18.80;99.90;;;;;;5068839;28;20045;-60
2023/06/25 02:37:57;;;;;;;6.78;3.08;;;18.80;99.90;;;;;;5068833;28;20045;-62
2023/06/25 02:40:27;;;;;;;6.05;3.13;;;18.70;99.90;;;;;;5062429;28;20048;-65
2023/06/25 02:42:55;;;;;;;5.65;3.58;;;18.80;99.90;;;;;;5057584;28;20040;-68
2023/06/25 02:45:23;;;;;;;4.68;3.00;;;18.70;99.90;;;;;;5050977;28;20052;-67
2023/06/25 02:47:52;;;;;;;4.05;2.58;;;18.70;99.90;;;;;;5064535;28;20369;-68
2023/06/25 02:50:20;;;;;;;4.60;2.75;;;18.70;99.90;;;;;;5068548;28;20047;-59
2023/06/25 02:52:48;;;;;;;4.43;3.17;;;18.70;99.90;;;;;;5068298;28;20076;-59
2023/06/25 02:55:16;;;;;;;4.53;2.97;;;18.70;99.90;;;;;;5054192;28;20033;-60
2023/06/25 02:57:44;;;;;;;5.05;3.17;;;18.70;99.90;;;;;;5065938;28;20037;-68
2023/06/25 03:00:12;;;;;;;7.35;3.38;;;18.60;99.90;;;;;;5063017;28;20506;-65
2023/06/25 03:02:40;;;;;;;4.00;3.20;;;18.60;99.90;;;;;;5058234;28;20057;-67
2023/06/25 03:05:08;;;;;;;5.10;3.03;;;18.60;99.90;;;;;;5066855;28;20051;-60
2023/06/25 03:10:48;;;;;;;5.22;3.47;;;18.40;99.90;;;;;;5745070;23;20023;-62
2023/06/25 03:13:16;;;;;;;4.68;2.90;;;18.40;99.90;;;;;;4872150;29;20049;-60
2023/06/25 03:15:45;;;;;;;5.18;3.40;;;18.30;99.90;;;;;;4877956;29;20049;-60
2023/06/25 03:18:12;;;;;;;4.72;3.25;;;18.30;99.90;;;;;;4878392;29;20049;-60
2023/06/25 03:20:40;;;;;;;5.10;3.00;;;18.20;99.90;;;;;;4876177;29;20052;-59
2023/06/25 03:23:08;;;;;;;6.40;3.25;;;18.10;99.90;;;;;;4878107;29;20052;-60
2023/06/25 03:25:35;;;;;;;6.05;3.42;;;18.10;99.90;;;;;;4877483;29;20400;-59
2023/06/25 03:28:15;;;;;;;3.88;3.10;;;18.10;99.90;;;;;;4877266;29;20041;-61
2023/06/25 03:30:46;;;;;;;5.53;3.33;;;18.00;99.90;;;;;;4876886;29;20053;-59
2023/06/25 03:33:15;;;;;;;8.38;3.42;;;18.00;99.90;;;;;;4876964;29;20037;-60
2023/06/25 03:35:42;;;;;;;5.20;3.40;;;17.90;99.90;;;;;;4874546;29;20053;-59
2023/06/25 03:38:10;;;;;;;3.75;3.05;;;17.90;99.90;;;;;;4877539;29;20052;-60
2023/06/25 03:40:39;;;;;;;4.25;2.90;;;17.80;99.90;;;;;;4877258;29;20045;-60
2023/06/25 03:43:06;;;;;;;4.65;2.92;;;17.80;99.90;;;;;;4875754;29;20082;-60
2023/06/25 03:45:35;;;;;;;4.55;2.90;;;17.80;99.90;;;;;;4874961;29;20041;-59
2023/06/25 03:48:05;;;;;;;4.43;2.90;;;17.80;99.90;;;;;;4876972;29;20048;-60
2023/06/25 03:50:33;;;;;;;5.07;2.92;;;17.80;99.90;;;;;;4878307;29;20485;-59
2023/06/25 03:53:01;;;;;;;9.23;3.15;;;17.80;99.90;;;;;;4876856;29;20057;-61
2023/06/25 03:55:30;;;;;;;7.05;3.08;;;17.80;99.90;;;;;;4876837;29;20056;-59
2023/06/25 03:57:58;;;;;;;6.80;2.65;;;17.70;99.90;;;;;;4877530;29;20056;-60
2023/06/25 04:00:27;;;;;;;4.65;3.25;;;17.70;99.90;;;;;;4876110;29;20045;-59
2023/06/25 04:02:55;;;;;;;5.00;3.30;;;17.70;99.90;;;;;;4877891;29;20060;-59
2023/06/25 04:05:23;;;;;;;3.80;2.90;;;17.60;99.90;;;;;;4876846;29;20037;-59
2023/06/25 04:07:53;;;;;;;7.82;3.45;;;17.60;99.90;;;;;;4876286;29;20060;-59
2023/06/25 04:10:21;;;;;;;5.88;3.17;;;17.60;99.90;;;;;;4877389;29;20056;-59
2023/06/25 04:12:48;;;;;;;4.65;2.80;;;17.50;99.90;;;;;;4860813;29;20062;-59
2023/06/25 04:15:18;;;;;;;5.63;3.60;;;17.60;99.90;;;;;;4873382;29;20045;-59
2023/06/25 04:17:49;;;;;;;6.30;3.15;;;17.60;99.90;;;;;;4852707;29;20041;-59
2023/06/25 04:20:16;;;;;;;4.55;3.20;;;17.50;99.90;;;;;;4841032;29;20403;-59
2023/06/25 04:22:44;;;;;;;3.95;3.10;;;17.50;99.90;;;;;;4859096;29;20042;-59
2023/06/25 04:25:11;;;;;;;7.95;3.10;;;17.50;99.90;;;;;;4871998;29;20061;-60
2023/06/25 04:27:39;;;;;;;4.50;3.00;;;17.50;99.90;;;;;;4873852;29;20045;-61
2023/06/25 04:30:07;;;;;;;3.60;2.75;;;17.50;99.90;;;;;;4857431;29;20064;-61
2023/06/25 04:32:35;;;;;;;4.13;3.20;;;17.50;99.90;;;;;;4856548;29;20506;-59
2023/06/25 04:35:04;;;;;;;4.15;2.88;;;17.50;99.90;;;;;;4857414;29;20497;-60
2023/06/25 04:37:31;;;;;;;6.68;3.10;;;17.50;99.90;;;;;;4856481;29;20053;-60
2023/06/25 04:40:01;;;;;;;7.07;4.05;;;17.50;99.90;;;;;;4870417;29;20060;-60
2023/06/25 04:42:28;;;;;;;7.18;3.10;;;17.50;99.90;;;;;;4866801;29;20060;-59
2023/06/25 04:44:56;;;;;;;7.97;2.90;;;17.50;99.90;;;;;;4862051;29;20045;-60
2023/06/25 04:47:24;;;;;;;4.68;3.13;;;17.50;99.90;;;;;;4863512;29;20046;-59
2023/06/25 04:49:51;;;;;;;3.88;2.47;;;17.50;99.90;;;;;;4864731;29;20068;-59
2023/06/25 04:52:20;;;;;;;3.97;2.80;;;17.50;99.90;;;;;;4856083;29;20405;-60
2023/06/25 04:54:48;;;;;;;3.28;2.53;;;17.50;99.90;;;;;;4856328;29;20062;-59
2023/06/25 04:57:15;;;;;;;4.80;3.10;;;17.50;99.90;;;;;;4857962;29;20057;-60
2023/06/25 04:59:43;;;;;;;3.40;2.60;;;17.50;99.90;;;;;;4858438;29;20433;-59
2023/06/25 05:02:10;;;;;;;7.40;3.03;;;17.60;99.90;;;;;;4849412;29;20057;-61
2023/06/25 05:04:38;;;;;;;4.50;2.80;;;17.60;99.90;;;;;;4852923;29;20388;-60
2023/06/25 05:07:06;;;;;;;4.75;2.85;;;17.60;99.90;;;;;;4853852;29;20049;-60
2023/06/25 05:09:33;;;;;;;3.70;2.67;;;17.60;99.90;;;;;;4856515;29;20050;-59
2023/06/25 05:12:13;;;;;;;5.38;2.47;;;17.70;99.90;;;;;;4857959;29;20058;-60
2023/06/25 05:14:40;;;;;;;4.50;2.60;;;17.70;99.90;;;;;;4862407;29;20056;-60
2023/06/25 05:17:09;;;;;;;5.10;2.60;;;17.70;99.90;;;;;;4856629;29;20053;-59
2023/06/25 05:19:37;;;;;;;3.88;2.65;;;17.70;99.90;;;;;;4857986;29;20049;-59
2023/06/25 05:22:05;;;;;;;3.75;2.30;;;17.80;99.90;;;;;;4854612;29;20469;-59
2023/06/25 05:24:32;;;;;;;3.60;2.35;;;17.80;99.90;;;;;;4846497;29;20050;-59
2023/06/25 05:27:00;;;;;;;5.10;2.72;;;17.90;99.90;;;;;;4852534;29;20061;-61
2023/06/25 05:29:28;;;;;;;5.35;2.83;;;17.90;99.90;;;;;;4853341;29;20406;-60
2023/06/25 05:31:55;;;;;;;3.83;2.05;;;18.00;99.90;;;;;;4856696;29;20439;-60
2023/06/25 05:34:23;;;;;;;3.10;2.28;;;18.00;99.90;;;;;;4856409;29;20049;-61
2023/06/25 05:36:51;;;;;;;3.67;2.08;;;18.10;99.90;;;;;;4852001;29;20061;-60
2023/06/25 05:39:19;;;;;;;5.03;2.40;;;18.10;99.90;;;;;;4851603;29;20042;-59
2023/06/25 05:41:47;;;;;;;3.83;2.25;;;18.10;99.90;;;;;;4840278;29;20057;-59
2023/06/25 05:44:15;;;;;;;3.33;2.05;;;18.20;99.90;;;;;;4856230;29;20053;-59
2023/06/25 05:46:43;;;;;;;4.13;2.13;;;18.20;99.90;;;;;;4866662;29;20057;-60
2023/06/25 05:49:11;;;;;;;4.38;2.28;;;18.20;99.90;;;;;;4857445;29;20057;-60
2023/06/25 05:51:39;;;;;;;3.08;1.90;;;18.30;99.90;;;;;;4851902;29;20490;-60
2023/06/25 05:54:06;;;;;;;4.60;2.38;;;18.30;99.90;;;;;;4862276;29;20057;-60
2023/06/25 05:56:34;;;;;;;3.47;1.98;;;18.40;99.90;;;;;;4851059;29;20050;-60
2023/06/25 05:59:02;;;;;;;3.63;1.70;;;18.40;99.90;;;;;;4857552;29;20050;-60
2023/06/25 06:01:29;;;;;;;4.47;2.30;;;18.50;99.90;;;;;;4854934;29;20497;-62
2023/06/25 06:03:57;;;;;;;4.18;2.42;;;18.60;99.90;;;;;;4851065;29;20037;-61
2023/06/25 06:06:25;;;;;;;5.15;2.15;;;18.60;99.90;;;;;;4869289;29;20053;-60
2023/06/25 06:08:52;;;;;;;3.63;2.00;;;18.60;99.90;;;;;;4861529;29;20058;-59
2023/06/25 06:11:20;;;;;;;3.95;1.95;;;18.70;99.90;;;;;;4862757;29;20061;-60
2023/06/25 06:13:49;;;;;;;2.22;1.73;;;18.70;99.90;;;;;;4857912;29;20542;-60
2023/06/25 06:16:16;;;;;;;2.78;2.00;;;18.80;99.90;;;;;;4862276;29;20049;-60
2023/06/25 06:18:44;;;;;;;3.50;1.67;;;18.90;99.90;;;;;;4857744;29;20054;-60
2023/06/25 06:21:12;;;;;;;3.42;1.67;;;19.00;99.90;;;;;;4856772;29;20060;-59
2023/06/25 06:23:39;;;;;;;5.03;2.03;;;19.10;99.90;;;;;;4857076;29;20049;-59
2023/06/25 06:26:08;;;;;;;2.47;1.75;;;19.10;99.90;;;;;;4838107;29;20482;-59
2023/06/25 06:28:36;;;;;;;5.75;1.60;;;19.20;99.90;;;;;;4848122;29;20049;-61
2023/06/25 06:31:03;;;;;;;3.17;1.80;;;19.30;99.90;;;;;;4854985;29;20253;-61
2023/06/25 06:33:31;;;;;;;6.45;2.08;;;19.40;99.90;;;;;;4857468;29;20069;-60
2023/06/25 06:36:00;;;;;;;3.85;1.90;;;19.40;99.90;;;;;;4859979;29;20045;-60
2023/06/25 06:38:28;;;;;;;2.83;2.03;;;19.50;99.90;;;;;;4856638;29;20053;-61
2023/06/25 06:40:57;;;;;;;5.68;2.00;;;19.60;99.90;;;;;;4856428;29;20126;-61
2023/06/25 06:43:25;;;;;;;2.90;1.45;;;19.70;99.90;;;;;;4855738;29;20058;-60
2023/06/25 06:45:52;;;;;;;4.88;2.22;;;19.80;99.90;;;;;;4859635;29;20466;-60
2023/06/25 06:48:20;;;;;;;2.28;1.70;;;19.80;99.90;;;;;;4856518;29;20175;-61
2023/06/25 06:50:48;;;;;;;3.13;2.28;;;19.90;99.90;;;;;;4854685;29;20045;-59
2023/06/25 06:53:16;;;;;;;5.13;1.70;;;19.90;99.90;;;;;;4853207;29;20050;-60
2023/06/25 06:55:43;;;;;;;1.80;1.60;;;20.00;99.90;;;;;;4849021;29;20132;-63
2023/06/25 06:58:11;;;;;;;2.45;1.75;;;20.00;99.90;;;;;;4850271;29;20037;-63
2023/06/25 07:00:39;;;;;;;1.88;1.45;;;20.10;99.90;;;;;;4850839;29;20490;-60
2023/06/25 07:03:06;;;;;;;3.75;1.80;;;20.00;99.90;;;;;;4854371;29;20069;-61
2023/06/25 07:05:35;;;;;;;4.97;1.60;;;20.00;99.90;;;;;;4848586;29;20057;-60
2023/06/25 07:08:04;;;;;;;2.30;1.83;;;20.10;99.90;;;;;;4848000;29;20405;-59
2023/06/25 07:10:31;;;;;;;2.47;1.70;;;20.10;99.90;;;;;;4843640;29;20525;-60
2023/06/25 07:12:59;;;;;;;3.58;1.73;;;20.20;99.90;;;;;;4842790;29;20048;-61
2023/06/25 07:15:26;;;;;;;2.20;1.80;;;20.30;99.90;;;;;;4855976;29;20049;-61
2023/06/25 07:17:55;;;;;;;2.08;1.50;;;20.50;99.90;;;;;;4856666;29;20050;-60
2023/06/25 07:20:23;;;;;;;2.45;1.70;;;20.60;99.90;;;;;;4855858;29;20060;-62
2023/06/25 07:22:50;;;;;;;2.90;1.80;;;20.70;99.90;;;;;;4857790;29;20183;-65
2023/06/25 07:25:19;;;;;;;5.45;2.38;;;20.80;99.90;;;;;;4854578;29;20060;-66
2023/06/25 07:27:47;;;;;;;3.70;1.80;;;20.90;99.90;;;;;;4855598;29;20049;-64
2023/06/25 07:30:15;;;;;;;3.10;1.90;;;21.00;99.90;;;;;;4875172;29;20056;-69
2023/06/25 07:32:42;;;;;;;3.03;1.65;;;21.10;99.90;;;;;;4868722;29;20073;-60
2023/06/25 07:35:10;;;;;;;5.97;2.20;;;21.20;99.90;;;;;;4856532;29;20622;-61
2023/06/25 07:37:37;;;;;;;2.25;1.58;;;21.30;99.90;;;;;;4856532;29;20057;-60
2023/06/25 07:40:06;;;;;;;3.13;1.77;;;21.40;99.90;;;;;;4855191;29;20053;-60
2023/06/25 07:42:34;;;;;;;2.55;2.05;;;21.50;99.90;;;;;;4857623;29;20049;-61
2023/06/25 07:45:02;;;;;;;2.33;1.90;;;21.70;99.90;;;;;;4853329;29;20069;-60
2023/06/25 07:47:30;;;;;;;2.67;1.83;;;21.90;99.90;;;;;;4845363;29;20060;-59
2023/06/25 07:49:58;;;;;;;4.07;1.90;;;22.00;99.90;;;;;;4856279;29;20045;-59
2023/06/25 07:52:25;;;;;;;2.95;2.03;;;22.20;99.90;;;;;;4855751;29;20053;-59
2023/06/25 07:54:53;;;;;;;3.35;2.05;;;22.30;99.90;;;;;;4857791;29;20053;-61
2023/06/25 07:57:21;;;;;;;4.68;2.00;;;22.50;99.90;;;;;;4842914;29;20061;-61
2023/06/25 07:59:49;;;;;;;3.58;2.00;;;22.60;99.90;;;;;;4855277;29;20057;-59
2023/06/25 08:02:21;;;;;;;5.15;2.30;;;22.70;99.90;;;;;;4856496;29;20410;-60
2023/06/25 08:04:50;;;;;;;3.40;2.42;;;22.70;99.90;;;;;;4857007;29;20419;-60
2023/06/25 08:07:17;;;;;;;3.35;1.98;;;22.90;99.90;;;;;;4853924;29;20410;-59
2023/06/25 08:09:46;;;;;;;3.90;2.22;;;22.90;99.90;;;;;;4854142;29;20045;-60
2023/06/25 08:12:14;;;;;;;2.40;1.85;;;23.00;99.90;;;;;;4851897;29;20080;-60
2023/06/25 08:14:43;;;;;;;4.32;2.35;;;23.10;99.90;;;;;;4851760;29;20061;-60
2023/06/25 08:17:10;;;;;;;3.55;2.25;;;23.10;99.90;;;;;;4852560;29;20050;-63
2023/06/25 08:19:38;;;;;;;4.22;2.33;;;23.20;99.90;;;;;;4850083;29;20053;-59
2023/06/25 08:22:06;;;;;;;4.35;2.22;;;23.10;99.90;;;;;;4853025;29;20051;-61
2023/06/25 08:24:34;;;;;;;8.35;2.33;;;23.10;99.90;;;;;;4853956;29;20056;-60
2023/06/25 08:27:01;;;;;;;3.08;2.30;;;23.10;99.90;;;;;;4844446;29;20522;-59
2023/06/25 08:29:29;;;;;;;6.70;2.47;;;23.00;99.90;;;;;;4854367;29;20045;-60
2023/06/25 08:31:57;;;;;;;3.63;2.03;;;23.00;99.90;;;;;;4858441;29;20049;-62
2023/06/25 08:34:24;;;;;;;3.47;2.20;;;22.90;99.90;;;;;;4855089;29;20054;-59
2023/06/25 08:36:52;;;;;;;3.22;2.17;;;22.80;99.90;;;;;;4855824;29;20050;-60
2023/06/25 08:39:19;;;;;;;3.88;2.30;;;22.70;99.90;;;;;;4858628;29;20108;-59
2023/06/25 08:41:49;;;;;;;3.17;2.30;;;22.60;99.90;;;;;;4847502;29;20045;-59
2023/06/25 08:44:16;;;;;;;4.93;2.17;;;22.60;99.90;;;;;;4843816;29;20042;-61
2023/06/25 08:46:48;;;;;;;4.18;2.58;;;22.50;99.90;;;;;;4837483;29;20057;-59
2023/06/25 08:49:16;;;;;;;5.07;2.42;;;22.50;99.90;;;;;;4845513;29;20501;-59
2023/06/25 08:51:44;;;;;;;6.53;2.75;;;22.40;99.90;;;;;;4842082;29;20064;-59
2023/06/25 08:54:11;;;;;;;5.22;2.22;;;22.50;99.90;;;;;;4849088;29;20528;-59
2023/06/25 08:56:39;;;;;;;2.90;2.42;;;22.50;99.90;;;;;;4839246;29;20097;-59
2023/06/25 08:59:07;;;;;;;2.63;2.10;;;22.60;99.90;;;;;;4847634;29;20046;-58
2023/06/25 09:01:35;;;;;;;4.25;2.22;;;22.70;99.90;;;;;;4868451;29;20042;-59
2023/06/25 09:04:03;;;;;;;3.63;2.22;;;22.90;99.90;;;;;;4844099;29;20076;-58
2023/06/25 09:06:39;;;;;;;2.50;2.10;;;23.00;99.90;;;;;;4854310;29;20052;-59
2023/06/25 09:09:25;;;;;;;2.83;2.20;;;23.10;99.90;;;;;;4838471;29;20073;-60
2023/06/25 09:11:53;;;;;;;4.63;2.33;;;23.30;99.90;;;;;;4858258;29;20060;-59
2023/06/25 09:14:21;;;;;;;2.65;2.30;;;23.40;99.90;;;;;;4846726;29;20057;-59
2023/06/25 09:16:50;;;;;;;3.78;2.33;;;23.60;99.90;;;;;;4845014;29;20490;-59
2023/06/25 09:19:21;;;;;;;3.60;2.75;;;23.80;99.90;;;;;;4851989;29;20048;-59
2023/06/25 09:21:49;;;;;;;4.03;2.38;;;24.00;99.90;;;;;;4854464;29;20074;-60
2023/06/25 09:24:19;;;;;;;5.65;2.40;;;24.30;99.90;;;;;;4853390;29;20506;-59
2023/06/25 09:26:48;;;;;;;;;;;24.50;99.90;;;;;;4861181;29;20044;-59
2023/06/25 09:29:18;;;;;;;4.55;2.67;;;24.70;99.90;;;;;;4851655;29;19931;-60
2023/06/25 09:31:47;;;;;;;3.50;2.55;;;24.80;99.90;;;;;;4853611;29;20413;-61
2023/06/25 09:34:16;;;;;;;3.40;2.77;;;24.90;99.90;;;;;;4857681;29;20045;-60
2023/06/25 09:36:45;;;;;;;4.25;2.38;;;25.00;99.90;;;;;;4857449;29;20054;-61
2023/06/25 09:39:13;;;;;;;4.20;2.60;;;25.10;99.90;;;;;;4858574;29;20065;-61
2023/06/25 09:41:41;;;;;;;4.25;2.80;;;25.20;99.90;;;;;;4856264;29;20046;-61
2023/06/25 09:44:10;;;;;;;4.60;2.67;;;25.30;99.90;;;;;;4860159;29;20521;-60
2023/06/25 09:46:40;;;;;;;4.90;2.90;;;25.40;99.90;;;;;;4855304;29;20052;-64
2023/06/25 09:49:08;;;;;;;2.67;2.15;;;25.50;99.10;;;;;;4865083;29;20639;-59
2023/06/25 09:51:55;;;;;;;4.80;2.75;;;25.50;99.10;;;;;;4856980;29;20050;-60
2023/06/25 09:54:24;;;;;;;5.15;2.40;;;25.60;98.80;;;;;;4867365;29;20056;-60
2023/06/25 09:56:55;;;;;;;6.55;2.60;;;25.60;98.70;;;;;;4858943;29;20049;-60
2023/06/25 09:59:26;;;;;;;4.53;2.63;;;25.60;98.60;;;;;;4858776;29;20046;-66
2023/06/25 10:01:53;;;;;;;3.83;2.30;;;25.60;98.30;;;;;;4858180;29;20562;-68
2023/06/25 10:04:22;;;;;;;5.47;3.13;;;25.60;98.50;;;;;;4851538;29;20045;-61
2023/06/25 10:06:50;;;;;;;7.07;2.60;;;25.50;98.50;;;;;;4855609;29;20049;-59
2023/06/25 10:09:18;;;;;;;4.28;2.47;;;25.50;98.20;;;;;;4857605;29;20060;-60
2023/06/25 10:11:50;;;;;;;6.85;3.10;;;25.40;98.10;;;;;;4867513;29;20485;-60
2023/06/25 10:14:18;;;;;;;4.57;3.05;;;25.30;98.30;;;;;;4855156;29;20065;-66
2023/06/25 10:16:56;;;;;;;6.20;2.83;;;25.30;98.40;;;;;;4870560;29;20498;-60
2023/06/25 10:19:26;;;;;;;5.63;3.22;;;25.20;98.50;;;;;;4846136;29;20505;-61
2023/06/25 10:22:04;;;;;;;;;;;25.10;98.30;;;;;;4852655;29;20049;-62
2023/06/25 10:24:40;;;;;;;5.88;3.03;;;25.00;98.70;;;;;;4857736;29;19935;-59
2023/06/25 10:27:25;;;;;;;6.10;2.55;;;25.00;98.80;;;;;;4864480;29;20060;-60
2023/06/25 10:29:54;;;;;;;6.30;2.88;;;25.10;98.80;;;;;;4856909;29;20072;-60
2023/06/25 10:32:27;;;;;;;4.07;3.00;;;25.30;99.10;;;;;;4866790;29;20063;-60
2023/06/25 10:35:02;;;;;;;6.15;2.90;;;25.50;98.30;;;;;;4850388;29;20058;-60
2023/06/25 10:37:31;;;;;;;7.38;2.55;;;25.60;98.50;;;;;;4858632;29;20065;-64
2023/06/25 10:40:07;;;;;;;5.10;3.22;;;25.70;98.30;;;;;;4856195;29;20050;-60
2023/06/25 10:42:36;;;;;;;5.85;3.13;;;25.90;98.10;;;;;;4864758;29;20053;-61
2023/06/25 10:45:05;;;;;;;6.97;3.10;;;26.10;98.00;;;;;;4857286;29;20053;-59
2023/06/25 10:47:33;;;;;;;4.45;2.65;;;26.30;97.80;;;;;;4859006;29;20120;-60
2023/06/25 10:50:01;;;;;;;5.25;2.80;;;26.40;97.60;;;;;;4854622;29;20046;-60
2023/06/25 10:52:29;;;;;;;5.85;3.08;;;26.50;97.60;;;;;;4858259;29;20053;-60
2023/06/25 10:55:01;;;;;;;6.68;3.13;;;26.60;97.80;;;;;;4856362;29;20553;-61
2023/06/25 10:57:31;;;;;;;4.85;2.92;;;26.70;97.60;;;;;;4843473;29;20912;-61
2023/06/25 11:00:00;;;;;;;5.18;2.95;;;26.80;97.60;;;;;;4854590;29;20061;-60
2023/06/25 11:02:28;;;;;;;4.38;2.88;;;26.90;97.50;;;;;;4857116;29;20762;-61
2023/06/25 11:04:58;;;;;;;7.72;3.38;;;27.00;97.30;;;;;;4854606;29;20042;-60
2023/06/25 11:07:26;;;;;;;4.35;2.95;;;27.10;97.40;;;;;;4841480;29;20064;-60
2023/06/25 11:09:56;;;;;;;6.57;3.03;;;27.20;97.10;;;;;;4855229;29;20057;-60
2023/06/25 11:12:24;;;;;;;4.55;3.08;;;27.30;97.00;;;;;;4857183;29;20076;-60
2023/06/25 11:14:52;;;;;;;4.78;3.08;;;27.50;96.90;;;;;;4865890;29;20049;-65
2023/06/25 11:17:20;;;;;;;4.80;3.17;;;27.60;96.60;;;;;;4855263;29;20054;-60
2023/06/25 11:19:53;;;;;;;6.35;2.95;;;27.70;96.30;;;;;;4854180;29;20516;-61
2023/06/25 11:22:21;;;;;;;3.88;2.75;;;27.70;96.60;;;;;;4855590;29;20060;-61
2023/06/25 11:24:50;;;;;;;3.90;3.03;;;27.90;96.70;;;;;;4847355;29;20054;-61
2023/06/25 11:27:26;;;;;;;5.97;3.20;;;27.90;96.30;;;;;;4852885;29;20048;-61
2023/06/25 11:29:54;;;;;;;7.10;2.97;;;28.00;96.40;;;;;;4856053;29;20057;-61
2023/06/25 11:32:23;;;;;;;5.13;3.20;;;27.90;96.20;;;;;;4859783;29;20057;-60
2023/06/25 11:34:51;;;;;;;9.57;3.13;;;27.90;95.80;;;;;;4863504;29;20398;-60
2023/06/25 11:37:19;;;;;;;3.67;2.92;;;27.80;95.60;;;;;;4855544;29;20056;-60
2023/06/25 11:39:49;;;;;;;7.07;3.03;;;27.80;95.70;;;;;;4846788;29;20057;-60
2023/06/25 11:42:19;;;;;;;5.93;2.95;;;27.80;95.80;;;;;;4850066;29;20045;-61
2023/06/25 11:45:03;;;;;;;4.18;2.72;;;27.90;95.90;;;;;;4856440;29;20053;-60
2023/06/25 11:47:33;;;;;;;6.20;3.15;;;28.00;95.70;;;;;;4858582;29;20050;-60
2023/06/25 11:50:02;;;;;;;4.13;2.97;;;28.10;95.10;;;;;;4859086;29;20595;-60
2023/06/25 11:52:30;;;;;;;4.07;3.08;;;28.20;95.10;;;;;;4855581;29;20053;-62
2023/06/25 11:54:58;;;;;;;7.90;3.20;;;28.30;94.70;;;;;;4844692;29;20049;-66
2023/06/25 11:57:25;;;;;;;3.53;2.83;;;28.40;94.50;;;;;;4872093;29;20068;-66
2023/06/25 11:59:53;;;;;;;5.78;3.25;;;28.50;94.50;;;;;;4864716;29;20050;-62
2023/06/25 12:02:20;;;;;;;4.03;3.35;;;28.50;94.30;;;;;;4854884;29;20072;-64
2023/06/25 12:04:54;;;;;;;5.10;3.40;;;28.40;94.20;;;;;;4870077;29;20057;-61
2023/06/25 12:07:22;;;;;;;4.47;2.97;;;28.30;94.50;;;;;;4856025;29;20645;-63
2023/06/25 12:09:50;;;;;;;9.55;3.38;;;28.30;94.30;;;;;;4849498;29;20057;-61
2023/06/25 12:12:17;;;;;;;3.85;2.90;;;28.40;94.50;;;;;;4855807;29;20065;-61
2023/06/25 12:14:47;;;;;;;4.45;2.95;;;28.50;95.10;;;;;;4855429;29;20051;-61
2023/06/25 12:17:15;;;;;;;7.50;3.38;;;28.60;95.10;;;;;;4856086;29;20064;-61
2023/06/25 12:19:42;;;;;;;3.00;2.70;;;28.90;95.20;;;;;;4854039;29;20490;-62
2023/06/25 12:22:10;;;;;;;7.30;3.33;;;29.10;94.90;;;;;;4855422;29;20068;-61
2023/06/25 12:24:38;;;;;;;5.78;3.05;;;29.10;94.50;;;;;;4846780;29;20046;-61
2023/06/25 12:27:06;;;;;;;4.50;3.45;;;29.10;94.50;;;;;;4838418;29;20054;-62
2023/06/25 12:29:34;;;;;;;4.70;2.78;;;29.20;94.50;;;;;;4854774;29;20049;-61
2023/06/25 12:32:01;;;;;;;3.95;2.90;;;29.30;94.00;;;;;;4854757;29;20045;-62
2023/06/25 12:34:29;;;;;;;4.03;3.00;;;29.20;93.20;;;;;;4855815;29;20060;-62
2023/06/25 12:36:57;;;;;;;3.75;3.08;;;29.10;93.10;;;;;;4855824;29;20536;-60
2023/06/25 12:39:25;;;;;;;5.55;3.08;;;29.10;93.50;;;;;;4850150;29;20054;-61
2023/06/25 12:41:53;;;;;;;5.03;2.80;;;29.00;93.30;;;;;;4867529;29;20054;-60
2023/06/25 12:44:21;;;;;;;4.60;2.60;;;29.00;93.10;;;;;;4855300;29;20050;-60
2023/06/25 12:46:49;;;;;;;5.00;2.80;;;28.90;92.40;;;;;;4855916;29;20056;-60
2023/06/25 12:49:17;;;;;;;5.47;2.72;;;28.60;92.70;;;;;;4855745;29;20498;-60
2023/06/25 12:51:45;;;;;;;4.30;3.00;;;28.50;93.00;;;;;;4854459;29;20053;-61
2023/06/25 12:54:13;;;;;;;5.55;3.00;;;28.50;93.20;;;;;;4859317;29;21443;-61
2023/06/25 12:56:40;;;;;;;6.47;3.33;;;28.40;93.10;;;;;;4855705;29;20042;-61
2023/06/25 12:59:08;;;;;;;3.92;2.90;;;28.40;93.10;;;;;;4855451;29;20061;-60